Orbital elements of FENGYUN 1C DEB
| Launched | 9 May 1999 |
| Flight ended | – |
| Launch site | Taiyuan Space Center, PRC |
| Owner | People's Republic of China |
| NORAD ID | 29788 |
| Date fetched |
Epoch osculation |
Inc. [°] |
Ecc. | RA asc node [hr] |
Arg Peri. [°] |
Mean anom [°] |
Mean motion [rev/day] |
Abs. mag |
| Date fetched |
Epoch osculation |
Inc. [°] |
Ecc. | RA asc node [hr] |
Arg Peri. [°] |
Mean anom [°] |
Mean motion [rev/day] |
Abs. mag |
| 2026 May 08 17:57 | 2026 May 05 03:36:46 | 98.7700 | 0.00436 | 13.4760 | 132.8858 | 247.4795 | 14.27054 | – |
| 2026 May 07 17:58 | 2026 May 05 03:36:46 | 98.7700 | 0.00436 | 13.4760 | 132.8858 | 247.4795 | 14.27054 | – |
| 2026 May 06 17:57 | 2026 May 05 03:36:46 | 98.7700 | 0.00436 | 13.4760 | 132.8858 | 247.4795 | 14.27054 | – |
| 2026 May 05 17:57 | 2026 May 05 03:36:46 | 98.7700 | 0.00436 | 13.4760 | 132.8858 | 247.4795 | 14.27054 | – |
| 2026 May 04 17:57 | 2026 Apr 30 04:17:59 | 98.7706 | 0.00436 | 13.1437 | 146.5432 | 247.4795 | 14.27054 | – |
| 2026 May 03 17:57 | 2026 Apr 30 04:17:59 | 98.7706 | 0.00436 | 13.1437 | 146.5432 | 247.4795 | 14.27054 | – |
| 2026 May 02 17:57 | 2026 Apr 30 04:17:59 | 98.7706 | 0.00436 | 13.1437 | 146.5432 | 247.4795 | 14.27054 | – |
| 2026 May 01 17:56 | 2026 Apr 30 04:17:59 | 98.7706 | 0.00436 | 13.1437 | 146.5432 | 247.4795 | 14.27054 | – |
| 2026 Apr 30 17:56 | 2026 Apr 30 04:17:59 | 98.7706 | 0.00436 | 13.1437 | 146.5432 | 247.4795 | 14.27054 | – |
| 2026 Apr 29 17:57 | 2026 Apr 24 05:19:29 | 98.7698 | 0.00434 | 12.7454 | 162.9170 | 247.4795 | 14.27054 | – |
| 2026 Apr 28 17:56 | 2026 Apr 24 05:19:29 | 98.7698 | 0.00434 | 12.7454 | 162.9170 | 247.4795 | 14.27054 | – |
| 2026 Apr 27 17:58 | 2026 Apr 24 05:19:29 | 98.7698 | 0.00434 | 12.7454 | 162.9170 | 247.4795 | 14.27054 | – |
| 2026 Apr 26 17:58 | 2026 Apr 24 05:19:29 | 98.7698 | 0.00434 | 12.7454 | 162.9170 | 247.4795 | 14.27054 | – |
| 2026 Apr 25 17:58 | 2026 Apr 24 05:19:29 | 98.7698 | 0.00434 | 12.7454 | 162.9170 | 247.4795 | 14.27054 | – |
| 2026 Apr 24 17:59 | 2026 Apr 24 05:19:29 | 98.7698 | 0.00434 | 12.7454 | 162.9170 | 247.4795 | 14.27054 | – |
| 2026 Apr 23 17:57 | 2026 Apr 19 03:58:42 | 98.7709 | 0.00431 | 12.4075 | 176.8938 | 247.4795 | 14.27054 | – |
| 2026 Apr 22 17:57 | 2026 Apr 19 03:58:42 | 98.7709 | 0.00431 | 12.4075 | 176.8938 | 247.4795 | 14.27054 | – |
| 2026 Apr 21 17:57 | 2026 Apr 19 03:58:42 | 98.7709 | 0.00431 | 12.4075 | 176.8938 | 247.4795 | 14.27054 | – |
| 2026 Apr 20 17:57 | 2026 Apr 19 03:58:42 | 98.7709 | 0.00431 | 12.4075 | 176.8938 | 247.4795 | 14.27054 | – |
| 2026 Apr 19 17:58 | 2026 Apr 19 03:58:42 | 98.7709 | 0.00431 | 12.4075 | 176.8938 | 247.4795 | 14.27054 | – |
| 2026 Apr 18 17:56 | 2026 Apr 12 17:33:12 | 98.7707 | 0.00426 | 11.9774 | 195.0563 | 247.4795 | 14.27054 | – |
| 2026 Apr 16 17:57 | 2026 Apr 12 17:33:12 | 98.7707 | 0.00426 | 11.9774 | 195.0563 | 247.4795 | 14.27054 | – |
| 2026 Apr 14 17:57 | 2026 Apr 12 17:33:12 | 98.7707 | 0.00426 | 11.9774 | 195.0563 | 247.4795 | 14.27054 | – |
| 2026 Apr 13 17:57 | 2026 Apr 12 17:33:12 | 98.7707 | 0.00426 | 11.9774 | 195.0563 | 247.4795 | 14.27054 | – |
| 2026 Apr 12 17:57 | 2026 Apr 08 16:07:46 | 98.7703 | 0.00422 | 11.7061 | 206.4810 | 247.4795 | 14.27054 | – |
| 2026 Apr 11 17:57 | 2026 Apr 08 16:07:46 | 98.7703 | 0.00422 | 11.7061 | 206.4810 | 247.4795 | 14.27054 | – |